sensor_id;sensor_type;location;lat;lon;timestamp;P1;durP1;ratioP1;P2;durP2;ratioP2
1106;SDS011;540;49.448;8.612;2023-06-19T00:00:13;8.85;;;6.93;;
1106;SDS011;540;49.448;8.612;2023-06-19T00:02:42;8.52;;;7.63;;
1106;SDS011;540;49.448;8.612;2023-06-19T00:05:10;13.68;;;8.50;;
1106;SDS011;540;49.448;8.612;2023-06-19T00:07:39;9.75;;;7.38;;
1106;SDS011;540;49.448;8.612;2023-06-19T00:10:07;9.70;;;7.22;;
1106;SDS011;540;49.448;8.612;2023-06-19T00:12:35;9.57;;;7.50;;
1106;SDS011;540;49.448;8.612;2023-06-19T00:15:05;9.75;;;7.65;;
1106;SDS011;540;49.448;8.612;2023-06-19T00:17:35;10.95;;;7.82;;
1106;SDS011;540;49.448;8.612;2023-06-19T00:20:05;10.07;;;7.72;;
1106;SDS011;540;49.448;8.612;2023-06-19T00:22:33;9.15;;;7.47;;
1106;SDS011;540;49.448;8.612;2023-06-19T00:25:01;10.02;;;7.30;;
1106;SDS011;540;49.448;8.612;2023-06-19T00:27:30;9.77;;;7.60;;
1106;SDS011;540;49.448;8.612;2023-06-19T00:29:57;10.23;;;7.35;;
1106;SDS011;540;49.448;8.612;2023-06-19T00:32:30;13.18;;;7.38;;
1106;SDS011;540;49.448;8.612;2023-06-19T00:34:58;8.30;;;6.97;;
1106;SDS011;540;49.448;8.612;2023-06-19T00:37:28;8.82;;;6.68;;
1106;SDS011;540;49.448;8.612;2023-06-19T00:39:59;8.68;;;6.63;;
1106;SDS011;540;49.448;8.612;2023-06-19T00:42:27;10.15;;;7.07;;
1106;SDS011;540;49.448;8.612;2023-06-19T00:44:55;13.07;;;7.05;;
1106;SDS011;540;49.448;8.612;2023-06-19T00:47:23;7.38;;;6.30;;
1106;SDS011;540;49.448;8.612;2023-06-19T00:49:53;8.45;;;6.55;;
1106;SDS011;540;49.448;8.612;2023-06-19T00:52:21;8.85;;;6.78;;
1106;SDS011;540;49.448;8.612;2023-06-19T00:54:49;11.57;;;6.63;;
1106;SDS011;540;49.448;8.612;2023-06-19T00:57:17;11.82;;;7.07;;
1106;SDS011;540;49.448;8.612;2023-06-19T00:59:45;10.95;;;6.97;;
1106;SDS011;540;49.448;8.612;2023-06-19T01:02:13;9.30;;;7.00;;
1106;SDS011;540;49.448;8.612;2023-06-19T01:04:41;11.23;;;7.43;;
1106;SDS011;540;49.448;8.612;2023-06-19T01:07:11;9.35;;;6.78;;
1106;SDS011;540;49.448;8.612;2023-06-19T01:09:43;8.38;;;6.60;;
1106;SDS011;540;49.448;8.612;2023-06-19T01:12:16;8.00;;;6.75;;
1106;SDS011;540;49.448;8.612;2023-06-19T01:14:48;9.38;;;7.50;;
1106;SDS011;540;49.448;8.612;2023-06-19T01:17:22;8.77;;;6.97;;
1106;SDS011;540;49.448;8.612;2023-06-19T01:19:51;10.55;;;6.93;;
1106;SDS011;540;49.448;8.612;2023-06-19T01:22:24;9.88;;;7.88;;
1106;SDS011;540;49.448;8.612;2023-06-19T01:24:53;8.70;;;7.20;;
1106;SDS011;540;49.448;8.612;2023-06-19T01:27:21;9.57;;;7.53;;
1106;SDS011;540;49.448;8.612;2023-06-19T01:29:50;8.48;;;7.18;;
1106;SDS011;540;49.448;8.612;2023-06-19T01:32:18;10.80;;;7.65;;
1106;SDS011;540;49.448;8.612;2023-06-19T01:34:52;10.93;;;7.23;;
1106;SDS011;540;49.448;8.612;2023-06-19T01:37:25;10.43;;;7.93;;
1106;SDS011;540;49.448;8.612;2023-06-19T01:39:54;10.23;;;7.95;;
1106;SDS011;540;49.448;8.612;2023-06-19T01:42:24;9.18;;;7.60;;
1106;SDS011;540;49.448;8.612;2023-06-19T01:44:53;10.90;;;7.93;;
1106;SDS011;540;49.448;8.612;2023-06-19T01:47:21;9.82;;;7.68;;
1106;SDS011;540;49.448;8.612;2023-06-19T01:49:49;13.18;;;7.32;;
1106;SDS011;540;49.448;8.612;2023-06-19T01:52:17;8.10;;;6.90;;
1106;SDS011;540;49.448;8.612;2023-06-19T01:54:47;10.65;;;6.78;;
1106;SDS011;540;49.448;8.612;2023-06-19T01:57:15;9.05;;;7.25;;
1106;SDS011;540;49.448;8.612;2023-06-19T01:59:43;8.02;;;6.75;;
1106;SDS011;540;49.448;8.612;2023-06-19T02:02:11;15.82;;;8.60;;
1106;SDS011;540;49.448;8.612;2023-06-19T02:04:38;10.77;;;8.00;;
1106;SDS011;540;49.448;8.612;2023-06-19T02:07:06;8.77;;;6.82;;
1106;SDS011;540;49.448;8.612;2023-06-19T02:09:34;17.75;;;6.75;;
1106;SDS011;540;49.448;8.612;2023-06-19T02:12:04;8.50;;;6.00;;
1106;SDS011;540;49.448;8.612;2023-06-19T02:14:33;12.75;;;6.70;;
1106;SDS011;540;49.448;8.612;2023-06-19T02:17:01;10.43;;;6.03;;
1106;SDS011;540;49.448;8.612;2023-06-19T02:19:29;6.38;;;5.57;;
1106;SDS011;540;49.448;8.612;2023-06-19T02:21:57;9.68;;;6.20;;
1106;SDS011;540;49.448;8.612;2023-06-19T02:24:24;6.80;;;5.70;;
1106;SDS011;540;49.448;8.612;2023-06-19T02:26:52;6.70;;;5.78;;
1106;SDS011;540;49.448;8.612;2023-06-19T02:29:22;7.70;;;6.43;;
1106;SDS011;540;49.448;8.612;2023-06-19T02:31:49;10.25;;;6.32;;
1106;SDS011;540;49.448;8.612;2023-06-19T02:34:18;9.82;;;5.82;;
1106;SDS011;540;49.448;8.612;2023-06-19T02:36:45;8.75;;;6.68;;
1106;SDS011;540;49.448;8.612;2023-06-19T02:39:13;8.60;;;5.72;;
1106;SDS011;540;49.448;8.612;2023-06-19T02:41:41;10.55;;;6.03;;
1106;SDS011;540;49.448;8.612;2023-06-19T02:44:12;6.22;;;5.40;;
1106;SDS011;540;49.448;8.612;2023-06-19T02:46:41;8.80;;;5.47;;
1106;SDS011;540;49.448;8.612;2023-06-19T02:49:09;8.02;;;5.80;;
1106;SDS011;540;49.448;8.612;2023-06-19T02:51:37;12.25;;;5.22;;
1106;SDS011;540;49.448;8.612;2023-06-19T02:54:07;6.65;;;4.53;;
1106;SDS011;540;49.448;8.612;2023-06-19T02:56:35;6.68;;;4.75;;
1106;SDS011;540;49.448;8.612;2023-06-19T02:59:03;4.97;;;3.65;;
1106;SDS011;540;49.448;8.612;2023-06-19T03:01:31;5.18;;;4.28;;
1106;SDS011;540;49.448;8.612;2023-06-19T03:04:01;7.25;;;4.35;;
1106;SDS011;540;49.448;8.612;2023-06-19T03:06:29;9.75;;;4.40;;
1106;SDS011;540;49.448;8.612;2023-06-19T03:08:59;5.78;;;4.50;;
1106;SDS011;540;49.448;8.612;2023-06-19T03:11:27;5.78;;;4.72;;
1106;SDS011;540;49.448;8.612;2023-06-19T03:13:55;5.97;;;4.97;;
1106;SDS011;540;49.448;8.612;2023-06-19T03:16:23;6.50;;;4.97;;
1106;SDS011;540;49.448;8.612;2023-06-19T03:18:51;6.80;;;4.18;;
1106;SDS011;540;49.448;8.612;2023-06-19T03:21:21;6.03;;;3.92;;
1106;SDS011;540;49.448;8.612;2023-06-19T03:23:49;4.90;;;3.90;;
1106;SDS011;540;49.448;8.612;2023-06-19T03:26:17;5.32;;;3.45;;
1106;SDS011;540;49.448;8.612;2023-06-19T03:28:46;4.43;;;3.08;;
1106;SDS011;540;49.448;8.612;2023-06-19T03:31:14;3.20;;;2.58;;
1106;SDS011;540;49.448;8.612;2023-06-19T03:33:42;3.45;;;2.75;;
1106;SDS011;540;49.448;8.612;2023-06-19T03:36:10;5.85;;;2.42;;
1106;SDS011;540;49.448;8.612;2023-06-19T03:38:39;3.83;;;2.95;;
1106;SDS011;540;49.448;8.612;2023-06-19T03:41:08;3.60;;;2.22;;
1106;SDS011;540;49.448;8.612;2023-06-19T03:43:36;3.30;;;2.53;;
1106;SDS011;540;49.448;8.612;2023-06-19T03:46:03;4.43;;;2.70;;
1106;SDS011;540;49.448;8.612;2023-06-19T03:48:31;5.55;;;2.63;;
1106;SDS011;540;49.448;8.612;2023-06-19T03:50:59;3.83;;;3.25;;
1106;SDS011;540;49.448;8.612;2023-06-19T03:53:27;7.80;;;2.63;;
1106;SDS011;540;49.448;8.612;2023-06-19T03:55:56;3.75;;;2.50;;
1106;SDS011;540;49.448;8.612;2023-06-19T03:58:24;3.08;;;2.42;;
1106;SDS011;540;49.448;8.612;2023-06-19T04:00:52;3.08;;;2.65;;
1106;SDS011;540;49.448;8.612;2023-06-19T04:03:20;3.30;;;2.53;;
1106;SDS011;540;49.448;8.612;2023-06-19T04:05:49;6.15;;;2.55;;
1106;SDS011;540;49.448;8.612;2023-06-19T04:08:17;3.13;;;2.58;;
1106;SDS011;540;49.448;8.612;2023-06-19T04:10:45;3.47;;;2.88;;
1106;SDS011;540;49.448;8.612;2023-06-19T04:13:14;5.35;;;2.60;;
1106;SDS011;540;49.448;8.612;2023-06-19T04:15:42;2.72;;;2.53;;
1106;SDS011;540;49.448;8.612;2023-06-19T04:18:14;5.53;;;2.78;;
1106;SDS011;540;49.448;8.612;2023-06-19T04:20:42;4.57;;;2.78;;
1106;SDS011;540;49.448;8.612;2023-06-19T04:23:10;4.28;;;3.30;;
1106;SDS011;540;49.448;8.612;2023-06-19T04:25:39;3.55;;;2.78;;
1106;SDS011;540;49.448;8.612;2023-06-19T04:28:06;3.67;;;3.22;;
1106;SDS011;540;49.448;8.612;2023-06-19T04:30:36;4.25;;;2.95;;
1106;SDS011;540;49.448;8.612;2023-06-19T04:33:05;4.88;;;2.90;;
1106;SDS011;540;49.448;8.612;2023-06-19T04:35:35;4.03;;;2.80;;
1106;SDS011;540;49.448;8.612;2023-06-19T04:38:06;3.72;;;2.72;;
1106;SDS011;540;49.448;8.612;2023-06-19T04:40:34;5.85;;;3.42;;
1106;SDS011;540;49.448;8.612;2023-06-19T04:43:02;4.35;;;2.78;;
1106;SDS011;540;49.448;8.612;2023-06-19T04:45:32;5.50;;;2.90;;
1106;SDS011;540;49.448;8.612;2023-06-19T04:48:01;4.22;;;2.80;;
1106;SDS011;540;49.448;8.612;2023-06-19T04:50:29;3.80;;;2.88;;
1106;SDS011;540;49.448;8.612;2023-06-19T04:52:57;2.72;;;2.28;;
1106;SDS011;540;49.448;8.612;2023-06-19T04:55:25;5.68;;;3.15;;
1106;SDS011;540;49.448;8.612;2023-06-19T04:57:53;4.47;;;3.17;;
1106;SDS011;540;49.448;8.612;2023-06-19T05:00:21;4.68;;;2.95;;
1106;SDS011;540;49.448;8.612;2023-06-19T05:02:50;3.72;;;2.78;;
1106;SDS011;540;49.448;8.612;2023-06-19T05:05:28;3.38;;;2.50;;
1106;SDS011;540;49.448;8.612;2023-06-19T05:07:56;4.15;;;2.78;;
1106;SDS011;540;49.448;8.612;2023-06-19T05:10:24;4.82;;;3.28;;
1106;SDS011;540;49.448;8.612;2023-06-19T05:12:52;3.85;;;2.97;;
1106;SDS011;540;49.448;8.612;2023-06-19T05:15:20;3.53;;;2.67;;
1106;SDS011;540;49.448;8.612;2023-06-19T05:17:48;3.83;;;2.33;;
1106;SDS011;540;49.448;8.612;2023-06-19T05:20:17;4.15;;;2.45;;
1106;SDS011;540;49.448;8.612;2023-06-19T05:22:46;4.05;;;2.90;;
1106;SDS011;540;49.448;8.612;2023-06-19T05:25:14;4.65;;;3.10;;
1106;SDS011;540;49.448;8.612;2023-06-19T05:27:42;3.70;;;2.88;;
1106;SDS011;540;49.448;8.612;2023-06-19T05:30:11;3.67;;;2.50;;
1106;SDS011;540;49.448;8.612;2023-06-19T05:32:39;3.75;;;2.70;;
1106;SDS011;540;49.448;8.612;2023-06-19T05:35:08;6.65;;;3.15;;
1106;SDS011;540;49.448;8.612;2023-06-19T05:37:39;4.22;;;2.90;;
1106;SDS011;540;49.448;8.612;2023-06-19T05:40:10;3.00;;;2.50;;
1106;SDS011;540;49.448;8.612;2023-06-19T05:42:39;6.43;;;2.67;;
1106;SDS011;540;49.448;8.612;2023-06-19T05:45:07;3.92;;;2.65;;
1106;SDS011;540;49.448;8.612;2023-06-19T05:47:35;4.45;;;2.80;;
1106;SDS011;540;49.448;8.612;2023-06-19T05:50:04;3.03;;;2.50;;
1106;SDS011;540;49.448;8.612;2023-06-19T05:52:32;4.07;;;2.90;;
1106;SDS011;540;49.448;8.612;2023-06-19T05:55:00;2.40;;;2.20;;
1106;SDS011;540;49.448;8.612;2023-06-19T05:57:29;3.72;;;2.17;;
1106;SDS011;540;49.448;8.612;2023-06-19T05:59:58;2.90;;;2.38;;
1106;SDS011;540;49.448;8.612;2023-06-19T06:02:42;4.38;;;2.58;;
1106;SDS011;540;49.448;8.612;2023-06-19T06:05:16;2.63;;;2.30;;
1106;SDS011;540;49.448;8.612;2023-06-19T06:07:47;3.08;;;2.67;;
1106;SDS011;540;49.448;8.612;2023-06-19T06:10:16;5.25;;;3.10;;
1106;SDS011;540;49.448;8.612;2023-06-19T06:12:46;4.35;;;3.40;;
1106;SDS011;540;49.448;8.612;2023-06-19T06:15:15;3.85;;;2.63;;
1106;SDS011;540;49.448;8.612;2023-06-19T06:17:43;4.32;;;2.72;;
1106;SDS011;540;49.448;8.612;2023-06-19T06:20:12;2.72;;;2.38;;
1106;SDS011;540;49.448;8.612;2023-06-19T06:22:41;4.95;;;2.53;;
1106;SDS011;540;49.448;8.612;2023-06-19T06:25:10;4.05;;;2.80;;
1106;SDS011;540;49.448;8.612;2023-06-19T06:27:39;3.90;;;2.70;;
1106;SDS011;540;49.448;8.612;2023-06-19T06:30:09;2.53;;;2.33;;
1106;SDS011;540;49.448;8.612;2023-06-19T06:32:39;3.33;;;2.83;;
1106;SDS011;540;49.448;8.612;2023-06-19T06:35:07;2.78;;;2.25;;
1106;SDS011;540;49.448;8.612;2023-06-19T06:37:35;3.83;;;2.78;;
1106;SDS011;540;49.448;8.612;2023-06-19T06:40:03;4.05;;;3.03;;
1106;SDS011;540;49.448;8.612;2023-06-19T06:42:35;5.22;;;3.10;;
1106;SDS011;540;49.448;8.612;2023-06-19T06:45:03;4.93;;;2.97;;
1106;SDS011;540;49.448;8.612;2023-06-19T06:47:34;4.40;;;2.85;;
1106;SDS011;540;49.448;8.612;2023-06-19T06:50:02;3.65;;;2.70;;
1106;SDS011;540;49.448;8.612;2023-06-19T06:52:31;5.68;;;2.80;;
1106;SDS011;540;49.448;8.612;2023-06-19T06:55:01;3.35;;;3.00;;
1106;SDS011;540;49.448;8.612;2023-06-19T06:57:28;3.33;;;2.75;;
1106;SDS011;540;49.448;8.612;2023-06-19T06:59:56;4.65;;;3.22;;
1106;SDS011;540;49.448;8.612;2023-06-19T07:02:24;3.83;;;3.03;;
1106;SDS011;540;49.448;8.612;2023-06-19T07:04:54;3.00;;;2.65;;
1106;SDS011;540;49.448;8.612;2023-06-19T07:07:22;3.38;;;2.78;;
1106;SDS011;540;49.448;8.612;2023-06-19T07:09:50;4.57;;;3.03;;
1106;SDS011;540;49.448;8.612;2023-06-19T07:12:18;4.28;;;2.97;;
1106;SDS011;540;49.448;8.612;2023-06-19T07:14:46;4.97;;;3.67;;
1106;SDS011;540;49.448;8.612;2023-06-19T07:17:14;3.35;;;3.05;;
1106;SDS011;540;49.448;8.612;2023-06-19T07:19:47;3.30;;;3.00;;
1106;SDS011;540;49.448;8.612;2023-06-19T07:22:16;3.97;;;3.38;;
1106;SDS011;540;49.448;8.612;2023-06-19T07:24:44;4.20;;;3.80;;
1106;SDS011;540;49.448;8.612;2023-06-19T07:27:12;5.22;;;3.53;;
1106;SDS011;540;49.448;8.612;2023-06-19T07:29:40;3.88;;;3.20;;
1106;SDS011;540;49.448;8.612;2023-06-19T07:32:08;5.57;;;3.50;;
1106;SDS011;540;49.448;8.612;2023-06-19T07:34:37;3.33;;;2.78;;
1106;SDS011;540;49.448;8.612;2023-06-19T07:37:04;5.03;;;3.25;;
1106;SDS011;540;49.448;8.612;2023-06-19T07:39:34;3.88;;;3.47;;
1106;SDS011;540;49.448;8.612;2023-06-19T07:42:02;4.82;;;3.40;;
1106;SDS011;540;49.448;8.612;2023-06-19T07:44:30;6.90;;;4.07;;
1106;SDS011;540;49.448;8.612;2023-06-19T07:46:58;5.00;;;4.38;;
1106;SDS011;540;49.448;8.612;2023-06-19T07:49:26;5.78;;;4.38;;
1106;SDS011;540;49.448;8.612;2023-06-19T07:51:54;4.68;;;3.83;;
1106;SDS011;540;49.448;8.612;2023-06-19T07:54:22;4.35;;;3.92;;
1106;SDS011;540;49.448;8.612;2023-06-19T07:56:51;6.50;;;4.22;;
1106;SDS011;540;49.448;8.612;2023-06-19T07:59:19;7.82;;;4.30;;
1106;SDS011;540;49.448;8.612;2023-06-19T08:01:47;8.35;;;5.35;;
1106;SDS011;540;49.448;8.612;2023-06-19T08:04:18;7.55;;;4.85;;
1106;SDS011;540;49.448;8.612;2023-06-19T08:06:48;5.30;;;3.80;;
1106;SDS011;540;49.448;8.612;2023-06-19T08:09:18;7.15;;;3.67;;
1106;SDS011;540;49.448;8.612;2023-06-19T08:11:47;5.47;;;4.10;;
1106;SDS011;540;49.448;8.612;2023-06-19T08:14:19;6.00;;;4.07;;
1106;SDS011;540;49.448;8.612;2023-06-19T08:16:49;6.43;;;4.50;;
1106;SDS011;540;49.448;8.612;2023-06-19T08:19:19;8.20;;;4.78;;
1106;SDS011;540;49.448;8.612;2023-06-19T08:21:49;4.90;;;4.00;;
1106;SDS011;540;49.448;8.612;2023-06-19T08:24:19;5.97;;;4.10;;
1106;SDS011;540;49.448;8.612;2023-06-19T08:26:49;4.95;;;3.92;;
1106;SDS011;540;49.448;8.612;2023-06-19T08:29:21;6.43;;;5.72;;
1106;SDS011;540;49.448;8.612;2023-06-19T08:31:51;7.00;;;4.22;;
1106;SDS011;540;49.448;8.612;2023-06-19T08:34:21;8.60;;;4.28;;
1106;SDS011;540;49.448;8.612;2023-06-19T08:36:52;5.03;;;4.53;;
1106;SDS011;540;49.448;8.612;2023-06-19T08:39:22;5.07;;;3.90;;
1106;SDS011;540;49.448;8.612;2023-06-19T08:41:54;7.03;;;4.53;;
1106;SDS011;540;49.448;8.612;2023-06-19T08:44:26;5.25;;;4.43;;
1106;SDS011;540;49.448;8.612;2023-06-19T08:46:57;6.03;;;3.65;;
1106;SDS011;540;49.448;8.612;2023-06-19T08:49:29;9.60;;;4.93;;
1106;SDS011;540;49.448;8.612;2023-06-19T08:52:00;9.30;;;4.90;;
1106;SDS011;540;49.448;8.612;2023-06-19T08:54:31;5.38;;;4.50;;
1106;SDS011;540;49.448;8.612;2023-06-19T08:57:01;4.93;;;4.07;;
1106;SDS011;540;49.448;8.612;2023-06-19T08:59:31;8.32;;;4.50;;
1106;SDS011;540;49.448;8.612;2023-06-19T09:01:59;8.10;;;4.53;;
1106;SDS011;540;49.448;8.612;2023-06-19T09:04:27;5.93;;;4.32;;
1106;SDS011;540;49.448;8.612;2023-06-19T09:06:58;6.38;;;4.00;;
1106;SDS011;540;49.448;8.612;2023-06-19T09:09:29;6.05;;;4.25;;
1106;SDS011;540;49.448;8.612;2023-06-19T09:12:02;5.05;;;4.43;;
1106;SDS011;540;49.448;8.612;2023-06-19T09:14:33;7.13;;;4.35;;
1106;SDS011;540;49.448;8.612;2023-06-19T09:17:02;5.28;;;4.00;;
1106;SDS011;540;49.448;8.612;2023-06-19T09:19:30;6.75;;;4.60;;
1106;SDS011;540;49.448;8.612;2023-06-19T09:22:01;4.88;;;3.85;;
1106;SDS011;540;49.448;8.612;2023-06-19T09:24:33;5.80;;;4.32;;
1106;SDS011;540;49.448;8.612;2023-06-19T09:27:06;6.22;;;3.95;;
1106;SDS011;540;49.448;8.612;2023-06-19T09:29:37;5.28;;;4.30;;
1106;SDS011;540;49.448;8.612;2023-06-19T09:32:15;4.57;;;4.18;;
1106;SDS011;540;49.448;8.612;2023-06-19T09:34:44;8.07;;;4.47;;
1106;SDS011;540;49.448;8.612;2023-06-19T09:37:15;4.90;;;4.40;;
1106;SDS011;540;49.448;8.612;2023-06-19T09:39:45;5.15;;;4.65;;
1106;SDS011;540;49.448;8.612;2023-06-19T09:42:16;4.65;;;4.20;;
1106;SDS011;540;49.448;8.612;2023-06-19T09:44:48;5.13;;;4.38;;
1106;SDS011;540;49.448;8.612;2023-06-19T09:47:20;4.90;;;4.38;;
1106;SDS011;540;49.448;8.612;2023-06-19T09:49:53;4.38;;;3.97;;
1106;SDS011;540;49.448;8.612;2023-06-19T09:52:22;5.57;;;4.47;;
1106;SDS011;540;49.448;8.612;2023-06-19T09:54:51;4.75;;;4.13;;
1106;SDS011;540;49.448;8.612;2023-06-19T09:57:20;5.68;;;3.95;;
1106;SDS011;540;49.448;8.612;2023-06-19T09:59:51;7.25;;;4.78;;
1106;SDS011;540;49.448;8.612;2023-06-19T10:02:24;5.40;;;4.28;;
1106;SDS011;540;49.448;8.612;2023-06-19T10:04:55;7.95;;;4.70;;
1106;SDS011;540;49.448;8.612;2023-06-19T10:07:25;5.15;;;4.55;;
1106;SDS011;540;49.448;8.612;2023-06-19T10:10:00;7.07;;;3.88;;
1106;SDS011;540;49.448;8.612;2023-06-19T10:12:34;4.38;;;3.97;;
1106;SDS011;540;49.448;8.612;2023-06-19T10:15:12;8.38;;;4.30;;
1106;SDS011;540;49.448;8.612;2023-06-19T10:17:44;4.20;;;3.80;;
1106;SDS011;540;49.448;8.612;2023-06-19T10:20:19;4.75;;;4.32;;
1106;SDS011;540;49.448;8.612;2023-06-19T10:22:53;6.95;;;4.45;;
1106;SDS011;540;49.448;8.612;2023-06-19T10:25:24;4.88;;;4.30;;
1106;SDS011;540;49.448;8.612;2023-06-19T10:27:57;4.53;;;4.00;;
1106;SDS011;540;49.448;8.612;2023-06-19T10:30:29;4.68;;;4.15;;
1106;SDS011;540;49.448;8.612;2023-06-19T10:33:03;7.15;;;3.75;;
1106;SDS011;540;49.448;8.612;2023-06-19T10:35:37;4.40;;;4.00;;
1106;SDS011;540;49.448;8.612;2023-06-19T10:38:07;7.05;;;4.15;;
1106;SDS011;540;49.448;8.612;2023-06-19T10:40:36;5.07;;;4.57;;
1106;SDS011;540;49.448;8.612;2023-06-19T10:43:04;6.15;;;4.28;;
1106;SDS011;540;49.448;8.612;2023-06-19T10:45:34;4.57;;;4.13;;
1106;SDS011;540;49.448;8.612;2023-06-19T10:48:03;4.80;;;4.25;;
1106;SDS011;540;49.448;8.612;2023-06-19T10:50:37;4.20;;;3.80;;
1106;SDS011;540;49.448;8.612;2023-06-19T10:53:10;6.07;;;4.25;;
1106;SDS011;540;49.448;8.612;2023-06-19T10:55:38;4.63;;;4.20;;
1106;SDS011;540;49.448;8.612;2023-06-19T10:58:06;3.95;;;3.65;;
1106;SDS011;540;49.448;8.612;2023-06-19T11:00:35;6.05;;;3.88;;
1106;SDS011;540;49.448;8.612;2023-06-19T11:03:03;4.57;;;4.18;;
1106;SDS011;540;49.448;8.612;2023-06-19T11:05:32;7.22;;;4.43;;
1106;SDS011;540;49.448;8.612;2023-06-19T11:08:00;4.43;;;3.97;;
1106;SDS011;540;49.448;8.612;2023-06-19T11:10:29;4.50;;;4.10;;
1106;SDS011;540;49.448;8.612;2023-06-19T11:12:58;6.45;;;4.15;;
1106;SDS011;540;49.448;8.612;2023-06-19T11:15:32;4.55;;;3.55;;
1106;SDS011;540;49.448;8.612;2023-06-19T11:18:05;4.15;;;3.72;;
1106;SDS011;540;49.448;8.612;2023-06-19T11:20:42;4.97;;;4.28;;
1106;SDS011;540;49.448;8.612;2023-06-19T11:23:12;5.60;;;3.80;;
1106;SDS011;540;49.448;8.612;2023-06-19T11:25:41;4.75;;;3.75;;
1106;SDS011;540;49.448;8.612;2023-06-19T11:28:10;4.35;;;3.95;;
1106;SDS011;540;49.448;8.612;2023-06-19T11:30:42;5.78;;;3.72;;
1106;SDS011;540;49.448;8.612;2023-06-19T11:33:18;4.55;;;3.47;;
1106;SDS011;540;49.448;8.612;2023-06-19T11:35:49;3.90;;;3.55;;
1106;SDS011;540;49.448;8.612;2023-06-19T11:38:18;3.80;;;3.50;;
1106;SDS011;540;49.448;8.612;2023-06-19T11:40:47;7.60;;;4.03;;
1106;SDS011;540;49.448;8.612;2023-06-19T11:43:24;5.70;;;4.05;;
1106;SDS011;540;49.448;8.612;2023-06-19T11:45:53;4.35;;;3.80;;
1106;SDS011;540;49.448;8.612;2023-06-19T11:48:34;4.75;;;3.50;;
1106;SDS011;540;49.448;8.612;2023-06-19T11:51:06;3.80;;;3.40;;
1106;SDS011;540;49.448;8.612;2023-06-19T11:53:35;6.95;;;3.42;;
1106;SDS011;540;49.448;8.612;2023-06-19T11:56:04;4.20;;;3.47;;
1106;SDS011;540;49.448;8.612;2023-06-19T11:58:32;5.97;;;3.70;;
1106;SDS011;540;49.448;8.612;2023-06-19T12:01:06;4.20;;;3.80;;
1106;SDS011;540;49.448;8.612;2023-06-19T12:03:49;4.78;;;3.42;;
1106;SDS011;540;49.448;8.612;2023-06-19T12:06:18;3.50;;;3.20;;
1106;SDS011;540;49.448;8.612;2023-06-19T12:08:49;4.07;;;3.65;;
1106;SDS011;540;49.448;8.612;2023-06-19T12:11:18;4.43;;;3.45;;
1106;SDS011;540;49.448;8.612;2023-06-19T12:13:57;8.10;;;3.70;;
1106;SDS011;540;49.448;8.612;2023-06-19T12:16:27;4.28;;;3.88;;
1106;SDS011;540;49.448;8.612;2023-06-19T12:19:01;4.32;;;3.22;;
1106;SDS011;540;49.448;8.612;2023-06-19T12:21:29;4.80;;;3.55;;
1106;SDS011;540;49.448;8.612;2023-06-19T12:24:04;3.88;;;3.40;;
1106;SDS011;540;49.448;8.612;2023-06-19T12:26:34;5.82;;;3.67;;
1106;SDS011;540;49.448;8.612;2023-06-19T12:29:04;3.80;;;3.50;;
1106;SDS011;540;49.448;8.612;2023-06-19T12:31:33;3.80;;;3.50;;
1106;SDS011;540;49.448;8.612;2023-06-19T12:34:05;3.83;;;3.47;;
1106;SDS011;540;49.448;8.612;2023-06-19T12:36:54;3.38;;;3.08;;
1106;SDS011;540;49.448;8.612;2023-06-19T12:39:23;5.13;;;3.20;;
1106;SDS011;540;49.448;8.612;2023-06-19T12:41:53;3.60;;;3.20;;
1106;SDS011;540;49.448;8.612;2023-06-19T12:44:22;6.50;;;3.28;;
1106;SDS011;540;49.448;8.612;2023-06-19T12:46:50;3.80;;;3.40;;
1106;SDS011;540;49.448;8.612;2023-06-19T12:49:20;4.80;;;3.67;;
1106;SDS011;540;49.448;8.612;2023-06-19T12:51:48;5.38;;;3.60;;
1106;SDS011;540;49.448;8.612;2023-06-19T12:54:18;4.07;;;3.70;;
1106;SDS011;540;49.448;8.612;2023-06-19T12:56:46;5.13;;;3.40;;
1106;SDS011;540;49.448;8.612;2023-06-19T12:59:15;3.65;;;3.25;;
1106;SDS011;540;49.448;8.612;2023-06-19T13:01:43;4.38;;;3.97;;
1106;SDS011;540;49.448;8.612;2023-06-19T13:04:12;4.93;;;4.22;;
1106;SDS011;540;49.448;8.612;2023-06-19T13:06:43;4.88;;;3.58;;
1106;SDS011;540;49.448;8.612;2023-06-19T13:09:11;4.22;;;3.83;;
1106;SDS011;540;49.448;8.612;2023-06-19T13:11:39;4.22;;;3.45;;
1106;SDS011;540;49.448;8.612;2023-06-19T13:14:08;4.68;;;3.38;;
1106;SDS011;540;49.448;8.612;2023-06-19T13:16:36;4.07;;;3.70;;
1106;SDS011;540;49.448;8.612;2023-06-19T13:19:07;3.75;;;3.40;;
1106;SDS011;540;49.448;8.612;2023-06-19T13:21:37;4.05;;;3.65;;
1106;SDS011;540;49.448;8.612;2023-06-19T13:24:07;4.13;;;3.70;;
1106;SDS011;540;49.448;8.612;2023-06-19T13:26:36;3.83;;;3.33;;
1106;SDS011;540;49.448;8.612;2023-06-19T13:29:04;4.28;;;3.80;;
1106;SDS011;540;49.448;8.612;2023-06-19T13:31:33;5.43;;;3.50;;
1106;SDS011;540;49.448;8.612;2023-06-19T13:34:01;4.60;;;3.85;;
1106;SDS011;540;49.448;8.612;2023-06-19T13:36:29;4.13;;;3.28;;
1106;SDS011;540;49.448;8.612;2023-06-19T13:38:58;8.13;;;5.18;;
1106;SDS011;540;49.448;8.612;2023-06-19T13:41:27;4.03;;;3.63;;
1106;SDS011;540;49.448;8.612;2023-06-19T13:43:57;4.20;;;3.47;;
1106;SDS011;540;49.448;8.612;2023-06-19T13:46:26;3.75;;;3.45;;
1106;SDS011;540;49.448;8.612;2023-06-19T13:48:54;3.47;;;3.17;;
1106;SDS011;540;49.448;8.612;2023-06-19T13:51:22;3.92;;;3.00;;
1106;SDS011;540;49.448;8.612;2023-06-19T13:53:51;4.95;;;3.22;;
1106;SDS011;540;49.448;8.612;2023-06-19T13:56:20;4.03;;;3.25;;
1106;SDS011;540;49.448;8.612;2023-06-19T13:58:51;3.72;;;3.40;;
1106;SDS011;540;49.448;8.612;2023-06-19T14:01:19;4.03;;;3.17;;
1106;SDS011;540;49.448;8.612;2023-06-19T14:03:48;3.97;;;3.30;;
1106;SDS011;540;49.448;8.612;2023-06-19T14:06:16;4.72;;;3.60;;
1106;SDS011;540;49.448;8.612;2023-06-19T14:08:45;4.15;;;3.63;;
1106;SDS011;540;49.448;8.612;2023-06-19T14:11:14;5.50;;;4.35;;
1106;SDS011;540;49.448;8.612;2023-06-19T14:13:42;3.65;;;3.10;;
1106;SDS011;540;49.448;8.612;2023-06-19T14:16:11;4.03;;;3.28;;
1106;SDS011;540;49.448;8.612;2023-06-19T14:18:39;7.70;;;3.47;;
1106;SDS011;540;49.448;8.612;2023-06-19T14:21:09;4.43;;;3.70;;
1106;SDS011;540;49.448;8.612;2023-06-19T14:23:39;5.68;;;3.58;;
1106;SDS011;540;49.448;8.612;2023-06-19T14:26:09;6.35;;;3.58;;
1106;SDS011;540;49.448;8.612;2023-06-19T14:28:40;3.72;;;3.40;;
1106;SDS011;540;49.448;8.612;2023-06-19T14:31:09;4.47;;;3.42;;
1106;SDS011;540;49.448;8.612;2023-06-19T14:33:38;3.90;;;3.47;;
1106;SDS011;540;49.448;8.612;2023-06-19T14:36:06;3.97;;;3.58;;
1106;SDS011;540;49.448;8.612;2023-06-19T14:38:34;3.85;;;3.45;;
1106;SDS011;540;49.448;8.612;2023-06-19T14:41:02;5.63;;;3.58;;
1106;SDS011;540;49.448;8.612;2023-06-19T14:43:30;6.28;;;3.45;;
1106;SDS011;540;49.448;8.612;2023-06-19T14:45:59;3.97;;;3.63;;
1106;SDS011;540;49.448;8.612;2023-06-19T14:48:27;3.53;;;3.22;;
1106;SDS011;540;49.448;8.612;2023-06-19T14:50:58;4.45;;;3.67;;
1106;SDS011;540;49.448;8.612;2023-06-19T14:53:31;4.97;;;3.43;;
1106;SDS011;540;49.448;8.612;2023-06-19T14:55:59;4.68;;;3.72;;
1106;SDS011;540;49.448;8.612;2023-06-19T14:58:27;4.60;;;3.70;;
1106;SDS011;540;49.448;8.612;2023-06-19T15:00:55;5.20;;;3.75;;
1106;SDS011;540;49.448;8.612;2023-06-19T15:03:24;4.03;;;3.63;;
1106;SDS011;540;49.448;8.612;2023-06-19T15:05:52;7.28;;;3.97;;
1106;SDS011;540;49.448;8.612;2023-06-19T15:08:27;4.20;;;3.80;;
1106;SDS011;540;49.448;8.612;2023-06-19T15:10:59;5.38;;;3.65;;
1106;SDS011;540;49.448;8.612;2023-06-19T15:13:27;4.93;;;3.75;;
1106;SDS011;540;49.448;8.612;2023-06-19T15:15:55;4.40;;;4.00;;
1106;SDS011;540;49.448;8.612;2023-06-19T15:18:25;5.78;;;3.95;;
1106;SDS011;540;49.448;8.612;2023-06-19T15:20:55;4.50;;;3.70;;
1106;SDS011;540;49.448;8.612;2023-06-19T15:23:42;4.10;;;3.70;;
1106;SDS011;540;49.448;8.612;2023-06-19T15:26:10;4.07;;;3.35;;
1106;SDS011;540;49.448;8.612;2023-06-19T15:28:37;4.25;;;3.85;;
1106;SDS011;540;49.448;8.612;2023-06-19T15:31:08;4.07;;;3.67;;
1106;SDS011;540;49.448;8.612;2023-06-19T15:33:36;4.90;;;4.38;;
1106;SDS011;540;49.448;8.612;2023-06-19T15:36:04;4.70;;;3.60;;
1106;SDS011;540;49.448;8.612;2023-06-19T15:38:33;5.03;;;3.67;;
1106;SDS011;540;49.448;8.612;2023-06-19T15:41:02;12.07;;;4.07;;
1106;SDS011;540;49.448;8.612;2023-06-19T15:43:30;4.28;;;3.63;;